Flight Track Log - Related Links

Times and Time Zones

All times are in EDT time to prevent confusion due to time zone crossing. See the SKW2604 flight status page for this flight to view local times or setup timezone preferences in your user account.

Time Position Orientation Groundspeed Altitude Reporting Facility
EDT Latitude Longitude Course Direction KTS MPH feet Rate Location/Type
Sat 12:48:45 PM 34.4264 -119.8719 262° West 159 183 1,000  Level Los Angeles Center
Sat 12:49:04 PM 34.4242 -119.8908 262° West 175 201 1,500 2,582 Climbing Los Angeles Center
Sat 12:50:04 PM 34.3761 -119.9089 197° South 233 268 4,400 2,118 Climbing Los Angeles Center
Sat 12:51:20 PM 34.2903 -119.8553 153° Southeast 288 331 6,300 1,522 Climbing Los Angeles Center
Sat 12:52:22 PM 34.2189 -119.8097 152° Southeast 292 336 7,900 1,258 Climbing Los Angeles Center
Sat 12:53:24 PM 34.2019 -119.7142 102° East 292 336 8,900 1,500 Climbing Los Angeles Center
Sat 12:54:26 PM 34.1883 -119.6119 99° East 305 351 11,000 1,016 Climbing Los Angeles Center
Sat 12:55:28 PM 34.1733 -119.4936 99° East 359 413 11,000  Level Los Angeles Center
Sat 12:56:30 PM 34.1533 -119.3372 99° East 391 450 11,000  Level Los Angeles Center
Sat 12:57:32 PM 34.1372 -119.2178 99° East 360 414 11,000  Level Los Angeles Center
Sat 12:58:34 PM 34.1231 -119.1139 99° East 302 348 11,000  Level Los Angeles Center
Sat 12:59:36 PM 34.1069 -119.0103 101° East 314 361 11,000  Level Los Angeles Center
Sat 01:00:38 PM 34.0883 -118.9067 102° East 314 361 11,000 -435 Level Los Angeles Center
Sat 01:01:40 PM 34.0711 -118.8089 102° East 301 346 10,100 -484 Descending Los Angeles Center
Sat 01:02:42 PM 34.0500 -118.6925 102° East 307 353 10,000 -384 Descending Los Angeles Center
Sat 01:03:45 PM 34.0325 -118.5867 101° East 302 348 9,300 -960 Descending Los Angeles Center
Sat 01:04:47 PM 34.0147 -118.4872 102° East 302 348 8,000 -1,258 Descending Los Angeles Center
Sat 01:05:49 PM 34.0186 -118.3953 87° East 290 334 6,700 -1,306 Descending Los Angeles Center
Sat 01:06:51 PM 34.0283 -118.3042 83° East 277 319 5,300 -1,258 Descending Los Angeles Center
Sat 01:07:53 PM 34.0369 -118.2264 82° East 245 282 4,100 -1,065 Descending Los Angeles Center
Sat 01:08:55 PM 34.0236 -118.1742 107° East 193 222 3,100 -726 Descending Los Angeles Center
Sat 01:09:57 PM 33.9683 -118.1683 175° South 179 206 2,600 -242 Descending Los Angeles Center
Sat 01:10:59 PM 33.9544 -118.2117 249° West 179 206 2,600 -290 Level Los Angeles Center
Sat 01:12:01 PM 33.9481 -118.2819 264° West 177 204 2,000 -726 Descending Los Angeles Center
Sat 01:13:03 PM 33.9433 -118.3336 264° West 168 193 1,100 -871 Descending Los Angeles Center
Sat 01:14:05 PM 33.9386 -118.3811 263° West 155 178 200 -871 Descending Los Angeles Center
Sat 01:16:00 PM 33.9333 -118.4000 237° Southwest  Level FlightAware Approximate

Login

Don't have an account? Register now (free) for customized features, flight alerts, and more!